createdAt,value
2023-02-19T00:00:26.776Z,100584.22
2023-02-19T00:03:29.596Z,100579.59
2023-02-19T00:06:33.740Z,100575.44
2023-02-19T00:09:36.442Z,100576.81
2023-02-19T00:12:39.156Z,100570.38
2023-02-19T00:15:42.047Z,100580.44
2023-02-19T00:18:45.570Z,100568.44
2023-02-19T00:21:51.188Z,100565.94
2023-02-19T00:24:53.909Z,100566.13
2023-02-19T00:27:57.171Z,100573.38
2023-02-19T00:31:15.878Z,100574.03
2023-02-19T00:34:18.717Z,100581.62
2023-02-19T00:37:21.314Z,100596.25
2023-02-19T00:40:26.263Z,100579.31
2023-02-19T00:43:28.868Z,100575.84
2023-02-19T00:46:35.612Z,100571.88
2023-02-19T00:49:38.397Z,100582.75
2023-02-19T00:52:41.088Z,100578.94
2023-02-19T00:55:43.766Z,100577.31
2023-02-19T00:58:47.201Z,100583.22
2023-02-19T01:01:50.350Z,100585.56
2023-02-19T01:04:53.623Z,100564.28
2023-02-19T01:07:56.350Z,100565.59
2023-02-19T01:10:59.865Z,100563.78
2023-02-19T01:14:03.626Z,100571.06
2023-02-19T01:17:06.490Z,100585.38
2023-02-19T01:20:09.618Z,100578.47
2023-02-19T01:23:14.487Z,100559.16
2023-02-19T01:26:26.036Z,100547.94
2023-02-19T01:29:28.814Z,100551.44
2023-02-19T01:32:31.545Z,100557.03
2023-02-19T01:35:35.045Z,100562.16
2023-02-19T01:38:37.747Z,100552.91
2023-02-19T01:41:41.997Z,100545.31
2023-02-19T01:44:47.900Z,100540.22
2023-02-19T01:47:55.908Z,100538.25
2023-02-19T01:51:18.100Z,100533.13
2023-02-19T01:54:23.055Z,100542.37
2023-02-19T01:57:29.411Z,100540.88
2023-02-19T02:00:33.777Z,100541.53
2023-02-19T02:03:39.081Z,100544.84
2023-02-19T02:06:53.337Z,100534.78
2023-02-19T02:10:14.536Z,100525.72
2023-02-19T02:13:17.485Z,100520.44
2023-02-19T02:16:34.336Z,100524.91
2023-02-19T02:19:58.773Z,100523.91
2023-02-19T02:23:19.640Z,100515.03
2023-02-19T02:26:31.759Z,100512.06
2023-02-19T02:29:47.055Z,100512.69
2023-02-19T02:33:10.997Z,100520.41
2023-02-19T02:36:17.882Z,100508.34
2023-02-19T02:39:23.503Z,100512.84
2023-02-19T02:42:29.042Z,100511.06
2023-02-19T02:45:36.192Z,100504.16
2023-02-19T02:48:59.145Z,100509.94
2023-02-19T02:52:22.271Z,100508.94
2023-02-19T02:55:26.127Z,100499.06
2023-02-19T02:58:29.526Z,100500.88
2023-02-19T03:02:06.628Z,100486.88
2023-02-19T03:05:43.292Z,100484.53
2023-02-19T03:09:05.304Z,100484.53
2023-02-19T03:12:33.076Z,100479.97
2023-02-19T03:16:00.984Z,100470.22
2023-02-19T03:19:20.239Z,100463.16
2023-02-19T03:22:34.248Z,100474.00
2023-02-19T03:25:57.020Z,100469.91
2023-02-19T03:29:19.148Z,100461.34
2023-02-19T03:32:27.805Z,100461.66
2023-02-19T03:35:32.324Z,100463.31
2023-02-19T03:38:42.585Z,100465.28
2023-02-19T03:42:01.399Z,100469.53
2023-02-19T03:45:19.850Z,100459.66
2023-02-19T03:48:36.487Z,100472.84
2023-02-19T03:52:01.857Z,100471.53
2023-02-19T03:55:17.515Z,100478.41
2023-02-19T03:58:43.501Z,100473.47
2023-02-19T04:02:14.126Z,100465.41
2023-02-19T04:05:22.714Z,100466.22
2023-02-19T04:08:26.203Z,100463.41
2023-02-19T04:11:29.860Z,100459.62
2023-02-19T04:14:40.110Z,100466.88
2023-02-19T04:17:47.796Z,100465.69
2023-02-19T04:20:50.879Z,100452.84
2023-02-19T04:23:54.182Z,100449.69
2023-02-19T04:26:57.115Z,100443.75
2023-02-19T04:29:59.897Z,100428.59
2023-02-19T04:33:02.896Z,100439.28
2023-02-19T04:36:06.103Z,100437.63
2023-02-19T04:39:08.967Z,100428.22
2023-02-19T04:42:11.684Z,100439.72
2023-02-19T04:45:14.522Z,100453.38
2023-02-19T04:48:17.216Z,100447.53
2023-02-19T04:51:19.943Z,100480.38
2023-02-19T04:54:22.744Z,100458.06
2023-02-19T04:57:25.492Z,100463.78
2023-02-19T05:00:29.480Z,100455.97
2023-02-19T05:03:32.510Z,100447.19
2023-02-19T05:06:35.300Z,100446.19
2023-02-19T05:09:37.959Z,100450.19
2023-02-19T05:12:40.653Z,100447.53
2023-02-19T05:15:43.398Z,100444.25
2023-02-19T05:18:47.009Z,100445.62
2023-02-19T05:21:49.781Z,100446.81
2023-02-19T05:24:52.524Z,100447.16
2023-02-19T05:28:15.186Z,100444.03
2023-02-19T05:31:18.757Z,100450.91
2023-02-19T05:34:21.634Z,100454.72
2023-02-19T05:37:24.409Z,100452.56
2023-02-19T05:40:27.107Z,100454.69
2023-02-19T05:43:29.842Z,100445.78
2023-02-19T05:46:32.783Z,100439.19
2023-02-19T05:49:35.998Z,100439.50
2023-02-19T05:52:38.676Z,100433.09
2023-02-19T05:55:41.496Z,100430.75
2023-02-19T05:58:44.443Z,100431.22
2023-02-19T06:01:48.084Z,100436.34
2023-02-19T06:04:50.765Z,100432.66
2023-02-19T06:07:53.555Z,100432.78
2023-02-19T06:10:56.390Z,100424.06
2023-02-19T06:13:59.454Z,100427.06
2023-02-19T06:17:02.203Z,100426.94
2023-02-19T06:20:05.812Z,100417.69
2023-02-19T06:23:08.621Z,100429.53
2023-02-19T06:26:21.496Z,100429.87
2023-02-19T06:29:24.543Z,100432.34
2023-02-19T06:32:27.538Z,100426.28
2023-02-19T06:35:30.408Z,100426.66
2023-02-19T06:38:33.214Z,100428.28
2023-02-19T06:41:36.216Z,100443.19
2023-02-19T06:44:39.074Z,100452.22
2023-02-19T06:47:41.836Z,100466.22
2023-02-19T06:50:44.711Z,100462.00
2023-02-19T06:53:47.637Z,100457.53
2023-02-19T06:56:50.414Z,100462.41
2023-02-19T06:59:53.161Z,100465.00
2023-02-19T07:02:56.788Z,100475.09
2023-02-19T07:06:01.056Z,100477.31
2023-02-19T07:09:05.454Z,100485.59
2023-02-19T07:12:08.362Z,100484.44
2023-02-19T07:15:11.166Z,100483.78
2023-02-19T07:18:14.098Z,100477.44
2023-02-19T07:21:17.807Z,100488.31
2023-02-19T07:24:21.855Z,100484.13
2023-02-19T07:27:25.157Z,100486.84
2023-02-19T07:30:27.938Z,100482.19
2023-02-19T07:33:31.038Z,100475.09
2023-02-19T07:36:33.794Z,100483.94
2023-02-19T07:39:37.660Z,100498.63
2023-02-19T07:42:40.554Z,100489.69
2023-02-19T07:45:44.044Z,100484.19
2023-02-19T07:48:47.546Z,100473.41
2023-02-19T07:51:50.458Z,100470.69
2023-02-19T07:54:53.168Z,100473.84
2023-02-19T07:57:58.747Z,100465.31
2023-02-19T08:01:14.298Z,100461.72
2023-02-19T08:04:17.254Z,100462.09
2023-02-19T08:07:20.542Z,100470.63
2023-02-19T08:10:43.537Z,100476.19
2023-02-19T08:13:49.174Z,100481.66
2023-02-19T08:16:52.945Z,100490.34
2023-02-19T08:19:55.803Z,100493.28
2023-02-19T08:22:58.713Z,100490.91
2023-02-19T08:26:02.614Z,100500.59
2023-02-19T08:29:06.137Z,100496.53
2023-02-19T08:32:09.320Z,100506.38
2023-02-19T08:35:12.058Z,100509.13
2023-02-19T08:38:16.708Z,100517.97
2023-02-19T08:41:22.507Z,100514.09
2023-02-19T08:44:25.347Z,100511.53
2023-02-19T08:47:28.271Z,100506.97
2023-02-19T08:50:31.218Z,100504.41
2023-02-19T08:53:35.280Z,100489.03
2023-02-19T08:56:38.009Z,100479.69
2023-02-19T08:59:40.830Z,100484.03
2023-02-19T09:02:43.713Z,100498.50
2023-02-19T09:05:49.647Z,100492.50
2023-02-19T09:08:52.601Z,100490.03
2023-02-19T09:11:55.412Z,100473.72
2023-02-19T09:14:58.165Z,100478.31
2023-02-19T09:18:00.875Z,100486.25
2023-02-19T09:21:05.313Z,100485.03
2023-02-19T09:24:09.601Z,100481.47
2023-02-19T09:27:16.927Z,100484.25
2023-02-19T09:30:21.604Z,100481.63
2023-02-19T09:33:24.413Z,100474.22
2023-02-19T09:36:27.413Z,100463.63
2023-02-19T09:39:34.405Z,100475.59
2023-02-19T09:42:40.794Z,100445.47
2023-02-19T09:45:43.981Z,100461.16
2023-02-19T09:48:46.939Z,100470.72
2023-02-19T09:52:13.190Z,100456.84
2023-02-19T09:55:36.823Z,100461.75
2023-02-19T09:59:02.961Z,100453.84
2023-02-19T10:02:22.995Z,100454.63
2023-02-19T10:05:26.706Z,100467.41
2023-02-19T10:08:33.152Z,100465.72
2023-02-19T10:11:36.080Z,100458.34
2023-02-19T10:14:50.826Z,100449.31
2023-02-19T10:17:53.800Z,100465.72
2023-02-19T10:20:58.714Z,100455.31
2023-02-19T10:24:06.449Z,100458.47
2023-02-19T10:27:14.470Z,100471.25
2023-02-19T10:30:23.662Z,100473.78
2023-02-19T10:33:26.959Z,100471.72
2023-02-19T10:36:33.164Z,100459.78
2023-02-19T10:39:42.879Z,100453.94
2023-02-19T10:43:13.250Z,100434.41
2023-02-19T10:46:19.271Z,100408.12
2023-02-19T10:49:25.334Z,100407.94
2023-02-19T10:52:36.831Z,100410.66
2023-02-19T10:55:41.464Z,100412.31
2023-02-19T10:58:45.246Z,100398.25
2023-02-19T11:02:02.230Z,100395.50
2023-02-19T11:05:17.322Z,100391.09
2023-02-19T11:08:24.400Z,100381.28
2023-02-19T11:11:34.030Z,100386.41
2023-02-19T11:14:37.175Z,100379.81
2023-02-19T11:17:39.932Z,100387.03
2023-02-19T11:20:48.818Z,100381.56
2023-02-19T11:23:54.832Z,100376.19
2023-02-19T11:26:58.723Z,100388.63
2023-02-19T11:30:35.885Z,100375.75
2023-02-19T11:34:04.568Z,100373.28
2023-02-19T11:37:14.955Z,100372.09
2023-02-19T11:40:17.832Z,100368.69
2023-02-19T11:43:40.337Z,100362.50
2023-02-19T11:47:07.695Z,100363.06
2023-02-19T11:50:56.808Z,100369.16
2023-02-19T11:54:38.315Z,100361.72
2023-02-19T11:57:47.734Z,100356.81
2023-02-19T12:01:16.390Z,100349.19
2023-02-19T12:04:53.456Z,100350.16
2023-02-19T12:07:56.288Z,100344.09
2023-02-19T12:11:16.624Z,100341.22
2023-02-19T12:14:25.837Z,100318.25
2023-02-19T12:17:40.941Z,100334.00
2023-02-19T12:21:21.445Z,100334.25
2023-02-19T12:24:34.608Z,100322.63
2023-02-19T12:28:11.260Z,100316.22
2023-02-19T12:31:43.582Z,100333.94
2023-02-19T12:35:02.488Z,100334.78
2023-02-19T12:38:26.684Z,100315.66
2023-02-19T12:41:35.753Z,100316.34
2023-02-19T12:44:44.091Z,100315.84
2023-02-19T12:48:16.357Z,100311.84
2023-02-19T12:51:25.067Z,100292.38
2023-02-19T12:54:50.436Z,100323.72
2023-02-19T12:57:53.632Z,100301.28
2023-02-19T13:00:59.924Z,100302.94
2023-02-19T13:04:08.853Z,100305.41
2023-02-19T13:07:19.292Z,100312.72
2023-02-19T13:10:43.734Z,100324.59
2023-02-19T13:14:11.119Z,100321.75
2023-02-19T13:17:23.189Z,100339.16
2023-02-19T13:20:39.599Z,100349.22
2023-02-19T13:23:58.570Z,100372.41
2023-02-19T13:27:32.429Z,100368.28
2023-02-19T13:31:00.430Z,100365.87
2023-02-19T13:34:30.783Z,100358.66
2023-02-19T13:37:36.680Z,100361.88
2023-02-19T13:40:42.759Z,100358.66
2023-02-19T13:43:55.851Z,100360.00
2023-02-19T13:46:59.239Z,100368.00
2023-02-19T13:50:07.044Z,100374.72
2023-02-19T13:53:51.880Z,100380.56
2023-02-19T13:57:22.932Z,100373.31
2023-02-19T14:00:52.131Z,100383.97
2023-02-19T14:04:08.884Z,100400.00
2023-02-19T14:07:11.618Z,100406.75
2023-02-19T14:10:46.366Z,100382.47
2023-02-19T14:13:52.394Z,100385.97
2023-02-19T14:16:57.552Z,100384.53
2023-02-19T14:20:23.322Z,100388.53
2023-02-19T14:23:26.415Z,100391.50
2023-02-19T14:26:32.153Z,100388.66
2023-02-19T14:29:35.380Z,100392.47
2023-02-19T14:32:40.194Z,100407.94
2023-02-19T14:35:47.972Z,100421.94
2023-02-19T14:39:06.407Z,100425.91
2023-02-19T14:42:25.353Z,100435.62
2023-02-19T14:45:29.622Z,100426.13
2023-02-19T14:48:40.312Z,100441.13
2023-02-19T14:51:46.069Z,100410.03
2023-02-19T14:54:51.733Z,100415.88
2023-02-19T14:57:55.656Z,100418.25
2023-02-19T15:01:00.273Z,100411.69
2023-02-19T15:04:03.556Z,100417.25
2023-02-19T15:07:10.813Z,100441.44
2023-02-19T15:10:14.980Z,100433.97
2023-02-19T15:13:25.682Z,100432.12
2023-02-19T15:16:30.599Z,100457.84
2023-02-19T15:19:36.513Z,100471.78
2023-02-19T15:22:40.614Z,100496.25
2023-02-19T15:25:43.785Z,100503.62
2023-02-19T15:28:46.746Z,100504.69
2023-02-19T15:31:58.380Z,100489.56
2023-02-19T15:35:03.585Z,100495.84
2023-02-19T15:38:07.099Z,100496.69
2023-02-19T15:41:20.431Z,100497.19
2023-02-19T15:44:35.702Z,100511.69
2023-02-19T15:47:41.836Z,100520.09
2023-02-19T15:50:49.916Z,100529.41
2023-02-19T15:53:57.683Z,100537.38
2023-02-19T15:57:06.031Z,100540.06
2023-02-19T16:00:20.228Z,100535.13
2023-02-19T16:03:25.497Z,100540.38
2023-02-19T16:06:29.363Z,100547.97
2023-02-19T16:09:37.824Z,100559.50
2023-02-19T16:12:41.452Z,100561.00
2023-02-19T16:15:56.493Z,100564.97
2023-02-19T16:19:01.277Z,100560.84
2023-02-19T16:22:05.360Z,100565.13
2023-02-19T16:25:10.089Z,100579.44
2023-02-19T16:28:19.760Z,100578.97
2023-02-19T16:31:24.905Z,100570.56
2023-02-19T16:34:50.747Z,100605.81
2023-02-19T16:37:59.079Z,100630.00
2023-02-19T16:41:12.359Z,100681.37
2023-02-19T16:44:21.783Z,100700.06
2023-02-19T16:47:29.246Z,100724.09
2023-02-19T16:50:33.397Z,100721.31
2023-02-19T16:53:36.517Z,100726.09
2023-02-19T16:56:40.013Z,100724.97
2023-02-19T16:59:43.300Z,100711.87
2023-02-19T17:02:51.767Z,100707.38
2023-02-19T17:05:54.881Z,100720.22
2023-02-19T17:08:58.556Z,100723.38
2023-02-19T17:12:02.605Z,100725.19
2023-02-19T17:15:06.037Z,100739.28
2023-02-19T17:18:12.185Z,100734.63
2023-02-19T17:21:21.288Z,100727.56
2023-02-19T17:24:27.327Z,100718.19
2023-02-19T17:27:30.055Z,100698.97
2023-02-19T17:30:33.919Z,100696.47
2023-02-19T17:33:37.936Z,100702.72
2023-02-19T17:36:43.378Z,100716.44
2023-02-19T17:39:46.418Z,100726.44
2023-02-19T17:42:49.599Z,100722.22
2023-02-19T17:45:53.210Z,100737.72
2023-02-19T17:48:56.608Z,100728.47
2023-02-19T17:52:00.186Z,100716.03
2023-02-19T17:55:03.295Z,100717.97
2023-02-19T17:58:07.101Z,100728.78
2023-02-19T18:01:10.905Z,100741.22
2023-02-19T18:04:14.249Z,100736.25
2023-02-19T18:07:17.321Z,100756.28
2023-02-19T18:10:22.450Z,100766.34
2023-02-19T18:13:25.580Z,100773.13
2023-02-19T18:16:28.627Z,100779.63
2023-02-19T18:19:31.791Z,100801.75
2023-02-19T18:22:34.767Z,100820.25
2023-02-19T18:25:37.815Z,100829.09
2023-02-19T18:28:40.979Z,100829.38
2023-02-19T18:31:43.803Z,100843.34
2023-02-19T18:34:52.027Z,100857.03
2023-02-19T18:37:55.191Z,100862.69
2023-02-19T18:40:59.281Z,100869.03
2023-02-19T18:44:03.381Z,100875.00
2023-02-19T18:47:07.431Z,100882.56
2023-02-19T18:50:11.785Z,100875.00
2023-02-19T18:53:15.275Z,100881.91
2023-02-19T18:56:18.583Z,100877.47
2023-02-19T18:59:22.088Z,100888.78
2023-02-19T19:02:25.737Z,100887.28
2023-02-19T19:05:29.605Z,100874.16
2023-02-19T19:08:33.012Z,100867.81
2023-02-19T19:11:36.548Z,100875.13
2023-02-19T19:14:40.254Z,100873.34
2023-02-19T19:17:49.464Z,100881.88
2023-02-19T19:20:56.679Z,100895.84
2023-02-19T19:24:00.247Z,100902.03
2023-02-19T19:27:03.545Z,100904.78
2023-02-19T19:30:08.490Z,100914.87
2023-02-19T19:33:12.132Z,100926.72
2023-02-19T19:36:22.322Z,100934.44
2023-02-19T19:39:26.171Z,100936.09
2023-02-19T19:42:29.533Z,100947.97
2023-02-19T19:45:32.896Z,100956.09
2023-02-19T19:48:36.114Z,100964.38
2023-02-19T19:51:39.543Z,100971.28
2023-02-19T19:54:43.814Z,100978.72
2023-02-19T19:57:47.853Z,100976.66
2023-02-19T20:00:52.078Z,100990.03
2023-02-19T20:03:56.306Z,100991.78
2023-02-19T20:07:00.477Z,100994.28
2023-02-19T20:10:05.606Z,100992.94
2023-02-19T20:13:08.855Z,101004.25
2023-02-19T20:16:12.629Z,101004.38
2023-02-19T20:19:16.715Z,101005.88
2023-02-19T20:22:20.533Z,101014.62
2023-02-19T20:25:24.773Z,101016.47
2023-02-19T20:28:27.665Z,101015.25
2023-02-19T20:31:31.732Z,101022.94
2023-02-19T20:34:35.277Z,101019.72
2023-02-19T20:37:39.863Z,101031.41
2023-02-19T20:40:43.336Z,101028.31
2023-02-19T20:43:47.040Z,101037.00
2023-02-19T20:46:51.956Z,101057.87
2023-02-19T20:49:55.295Z,101055.41
2023-02-19T20:52:58.669Z,101065.66
2023-02-19T20:56:01.676Z,101061.31
2023-02-19T20:59:04.705Z,101051.59
2023-02-19T21:02:19.555Z,101060.28
2023-02-19T21:05:22.978Z,101068.50
2023-02-19T21:08:26.607Z,101074.59
2023-02-19T21:11:29.865Z,101087.78
2023-02-19T21:14:33.126Z,101079.84
2023-02-19T21:17:36.444Z,101088.66
2023-02-19T21:20:39.659Z,101097.06
2023-02-19T21:23:43.606Z,101099.09
2023-02-19T21:26:46.861Z,101110.25
2023-02-19T21:29:50.061Z,101096.84
2023-02-19T21:32:53.130Z,101110.63
2023-02-19T21:35:57.901Z,101112.88
2023-02-19T21:39:01.587Z,101120.97
2023-02-19T21:42:04.807Z,101120.94
2023-02-19T21:45:08.085Z,101114.28
2023-02-19T21:48:11.172Z,101119.16
2023-02-19T21:51:14.325Z,101131.75
2023-02-19T21:54:24.862Z,101137.69
2023-02-19T21:57:28.067Z,101132.41
2023-02-19T22:00:31.670Z,101136.62
2023-02-19T22:03:34.603Z,101135.91
2023-02-19T22:06:39.483Z,101139.75
2023-02-19T22:09:42.345Z,101152.84
2023-02-19T22:12:45.505Z,101157.22
2023-02-19T22:15:48.469Z,101154.28
2023-02-19T22:18:53.571Z,101155.44
2023-02-19T22:21:56.506Z,101153.84
2023-02-19T22:24:59.266Z,101161.78
2023-02-19T22:28:04.596Z,101168.56
2023-02-19T22:31:08.368Z,101165.34
2023-02-19T22:34:11.325Z,101182.37
2023-02-19T22:37:14.271Z,101179.75
2023-02-19T22:40:17.255Z,101182.66
2023-02-19T22:43:20.121Z,101186.09
2023-02-19T22:46:28.976Z,101190.34
2023-02-19T22:49:32.054Z,101194.59
2023-02-19T22:52:35.005Z,101200.06
2023-02-19T22:55:37.768Z,101202.38
2023-02-19T22:58:41.182Z,101209.66
2023-02-19T23:01:43.967Z,101214.03
2023-02-19T23:04:46.975Z,101212.87
2023-02-19T23:07:49.711Z,101213.37
2023-02-19T23:10:53.019Z,101209.94
2023-02-19T23:13:55.869Z,101207.00
2023-02-19T23:16:58.968Z,101210.44
2023-02-19T23:20:02.116Z,101210.28
2023-02-19T23:23:05.377Z,101228.72
2023-02-19T23:26:08.384Z,101230.37
2023-02-19T23:29:11.312Z,101232.88
2023-02-19T23:32:14.280Z,101225.47
2023-02-19T23:35:17.264Z,101234.88
2023-02-19T23:38:20.226Z,101246.28
2023-02-19T23:41:23.028Z,101249.53
2023-02-19T23:44:26.100Z,101257.69
2023-02-19T23:47:30.664Z,101247.03
2023-02-19T23:50:39.863Z,101249.97
2023-02-19T23:53:42.771Z,101254.84
2023-02-19T23:56:45.564Z,101258.09
2023-02-19T23:59:49.404Z,101257.03
